createdAt,value
2022-08-18T00:00:17.273Z,22.07
2022-08-18T00:01:17.058Z,22.06
2022-08-18T00:02:16.848Z,22.07
2022-08-18T00:03:27.587Z,22.10
2022-08-18T00:04:24.339Z,22.15
2022-08-18T00:05:16.690Z,22.15
2022-08-18T00:06:16.501Z,22.16
2022-08-18T00:07:16.927Z,22.15
2022-08-18T00:08:16.359Z,22.12
2022-08-18T00:09:16.774Z,22.07
2022-08-18T00:10:17.992Z,22.06
2022-08-18T00:11:16.472Z,22.06
2022-08-18T00:12:17.081Z,22.10
2022-08-18T00:13:16.521Z,22.09
2022-08-18T00:14:21.942Z,22.07
2022-08-18T00:15:16.430Z,22.02
2022-08-18T00:16:16.937Z,22.03
2022-08-18T00:17:16.393Z,22.02
2022-08-18T00:18:16.866Z,22.02
2022-08-18T00:19:16.395Z,22.03
2022-08-18T00:20:16.856Z,22.03
2022-08-18T00:21:16.303Z,22.02
2022-08-18T00:22:16.850Z,22.05
2022-08-18T00:23:17.273Z,22.02
2022-08-18T00:24:16.719Z,22.02
2022-08-18T00:25:17.140Z,21.98
2022-08-18T00:26:16.571Z,21.93
2022-08-18T00:27:17.021Z,21.91
2022-08-18T00:28:16.472Z,21.91
2022-08-18T00:29:16.919Z,21.91
2022-08-18T00:30:16.403Z,21.89
2022-08-18T00:31:16.853Z,21.88
2022-08-18T00:32:16.558Z,21.93
2022-08-18T00:33:17.018Z,22.00
2022-08-18T00:34:16.468Z,22.09
2022-08-18T00:35:16.916Z,22.13
2022-08-18T00:36:16.324Z,22.19
2022-08-18T00:37:16.759Z,22.26
2022-08-18T00:38:23.689Z,22.35
2022-08-18T00:39:17.037Z,22.44
2022-08-18T00:40:16.573Z,22.47
2022-08-18T00:41:17.182Z,22.54
2022-08-18T00:42:27.203Z,22.60
2022-08-18T00:43:16.327Z,22.64
2022-08-18T00:44:16.811Z,22.71
2022-08-18T00:45:17.290Z,22.72
2022-08-18T00:46:16.759Z,22.78
2022-08-18T00:47:17.302Z,22.82
2022-08-18T00:48:16.732Z,22.88
2022-08-18T00:49:17.115Z,22.88
2022-08-18T00:50:16.542Z,22.89
2022-08-18T00:51:16.986Z,22.96
2022-08-18T00:52:16.387Z,22.96
2022-08-18T00:53:16.817Z,22.96
2022-08-18T00:54:17.229Z,22.97
2022-08-18T00:55:16.678Z,23.02
2022-08-18T00:56:17.116Z,23.03
2022-08-18T00:57:16.605Z,23.05
2022-08-18T00:58:17.077Z,22.99
2022-08-18T00:59:16.575Z,22.97
2022-08-18T01:00:17.041Z,23.00
2022-08-18T01:01:16.551Z,22.99
2022-08-18T01:02:16.585Z,22.99
2022-08-18T01:03:22.215Z,22.99
2022-08-18T01:04:16.848Z,23.00
2022-08-18T01:05:17.273Z,22.97
2022-08-18T01:06:16.692Z,23.00
2022-08-18T01:07:17.311Z,23.02
2022-08-18T01:08:16.758Z,23.09
2022-08-18T01:09:16.911Z,23.16
2022-08-18T01:10:16.368Z,23.26
2022-08-18T01:11:16.822Z,23.29
2022-08-18T01:12:44.778Z,23.34
2022-08-18T01:13:16.933Z,23.41
2022-08-18T01:14:16.393Z,23.44
2022-08-18T01:15:28.592Z,23.45
2022-08-18T01:16:16.971Z,23.50
2022-08-18T01:17:16.466Z,23.54
2022-08-18T01:18:16.940Z,23.55
2022-08-18T01:19:16.389Z,23.57
2022-08-18T01:20:16.833Z,23.59
2022-08-18T01:21:17.274Z,23.58
2022-08-18T01:22:17.109Z,23.58
2022-08-18T01:23:16.526Z,23.57
2022-08-18T01:24:21.276Z,23.55
2022-08-18T01:25:16.474Z,23.55
2022-08-18T01:26:16.956Z,23.52
2022-08-18T01:27:16.426Z,23.52
2022-08-18T01:28:16.900Z,23.52
2022-08-18T01:29:19.005Z,23.51
2022-08-18T01:30:17.109Z,23.50
2022-08-18T01:31:16.552Z,23.47
2022-08-18T01:32:17.218Z,23.42
2022-08-18T01:33:16.689Z,23.41
2022-08-18T01:34:17.105Z,23.37
2022-08-18T01:35:16.541Z,23.34
2022-08-18T01:36:17.046Z,23.34
2022-08-18T01:37:16.475Z,23.29
2022-08-18T01:38:16.932Z,23.24
2022-08-18T01:39:16.353Z,23.16
2022-08-18T01:41:00.289Z,23.13
2022-08-18T01:41:25.403Z,23.05
2022-08-18T01:42:17.359Z,22.99
2022-08-18T01:43:16.993Z,22.97
2022-08-18T01:44:16.449Z,22.93
2022-08-18T01:45:16.938Z,22.86
2022-08-18T01:46:16.391Z,22.83
2022-08-18T01:47:16.770Z,22.85
2022-08-18T01:48:17.256Z,22.74
2022-08-18T01:49:16.681Z,22.72
2022-08-18T01:50:17.148Z,22.67
2022-08-18T01:51:16.586Z,22.64
2022-08-18T01:52:17.104Z,22.60
2022-08-18T01:53:16.541Z,22.57
2022-08-18T01:54:16.964Z,22.54
2022-08-18T01:55:16.391Z,22.50
2022-08-18T01:56:16.302Z,22.45
2022-08-18T01:57:16.794Z,22.44
2022-08-18T01:58:17.277Z,22.37
2022-08-18T01:59:16.741Z,22.35
2022-08-18T02:00:17.196Z,22.33
2022-08-18T02:01:16.700Z,22.28
2022-08-18T02:02:18.364Z,22.26
2022-08-18T02:03:17.214Z,22.21
2022-08-18T02:04:34.226Z,22.19
2022-08-18T02:05:16.346Z,22.17
2022-08-18T02:06:16.767Z,22.13
2022-08-18T02:07:17.185Z,22.00
2022-08-18T02:08:16.507Z,21.98
2022-08-18T02:09:16.939Z,21.88
2022-08-18T02:10:16.868Z,21.76
2022-08-18T02:11:16.331Z,21.68
2022-08-18T02:12:17.309Z,21.61
2022-08-18T02:13:16.778Z,21.60
2022-08-18T02:14:17.233Z,21.58
2022-08-18T02:15:16.785Z,21.58
2022-08-18T02:16:17.234Z,21.44
2022-08-18T02:17:16.668Z,21.34
2022-08-18T02:18:25.924Z,21.30
2022-08-18T02:19:16.534Z,21.21
2022-08-18T02:20:16.954Z,21.11
2022-08-18T02:21:19.023Z,21.07
2022-08-18T02:22:16.920Z,20.95
2022-08-18T02:23:16.336Z,20.82
2022-08-18T02:24:16.804Z,20.78
2022-08-18T02:25:17.246Z,20.71
2022-08-18T02:26:16.692Z,20.59
2022-08-18T02:27:16.921Z,20.57
2022-08-18T02:28:16.380Z,20.47
2022-08-18T02:29:16.872Z,20.36
2022-08-18T02:30:16.375Z,20.29
2022-08-18T02:31:16.886Z,20.26
2022-08-18T02:32:16.417Z,20.16
2022-08-18T02:33:16.867Z,20.13
2022-08-18T02:34:16.286Z,20.10
2022-08-18T02:35:16.741Z,20.06
2022-08-18T02:36:17.153Z,20.01
2022-08-18T02:37:16.588Z,20.01
2022-08-18T02:38:17.366Z,20.01
2022-08-18T02:39:16.914Z,19.99
2022-08-18T02:40:16.399Z,19.96
2022-08-18T02:41:16.992Z,19.92
2022-08-18T02:42:16.487Z,19.93
2022-08-18T02:43:16.960Z,19.89
2022-08-18T02:44:16.456Z,19.88
2022-08-18T02:45:16.938Z,19.81
2022-08-18T02:46:16.400Z,19.78
2022-08-18T02:47:16.864Z,19.76
2022-08-18T02:48:16.313Z,19.84
2022-08-18T02:49:16.764Z,19.79
2022-08-18T02:50:17.179Z,19.75
2022-08-18T02:51:16.617Z,19.74
2022-08-18T02:52:16.932Z,19.72
2022-08-18T02:53:16.364Z,19.68
2022-08-18T02:54:16.814Z,19.67
2022-08-18T02:55:17.272Z,19.71
2022-08-18T02:56:16.716Z,19.71
2022-08-18T02:57:17.185Z,19.67
2022-08-18T02:58:16.656Z,19.62
2022-08-18T02:59:17.125Z,19.61
2022-08-18T03:00:18.923Z,19.58
2022-08-18T03:01:16.638Z,19.64
2022-08-18T03:02:16.308Z,19.65
2022-08-18T03:03:16.735Z,19.61
2022-08-18T03:04:17.164Z,19.62
2022-08-18T03:05:16.619Z,19.62
2022-08-18T03:06:17.053Z,19.62
2022-08-18T03:07:16.488Z,19.60
2022-08-18T03:08:17.189Z,19.58
2022-08-18T03:09:16.628Z,19.57
2022-08-18T03:10:31.261Z,19.54
2022-08-18T03:11:17.167Z,19.47
2022-08-18T03:12:16.395Z,19.48
2022-08-18T03:13:16.847Z,19.43
2022-08-18T03:14:16.452Z,19.37
2022-08-18T03:15:16.904Z,19.36
2022-08-18T03:16:16.352Z,19.34
2022-08-18T03:17:16.763Z,19.26
2022-08-18T03:18:17.197Z,19.22
2022-08-18T03:19:16.627Z,19.23
2022-08-18T03:20:17.049Z,19.26
2022-08-18T03:21:16.833Z,19.23
2022-08-18T03:22:27.810Z,19.22
2022-08-18T03:23:16.753Z,19.10
2022-08-18T03:24:19.784Z,19.07
2022-08-18T03:25:17.227Z,19.05
2022-08-18T03:26:16.690Z,18.99
2022-08-18T03:27:17.163Z,18.95
2022-08-18T03:28:16.627Z,18.94
2022-08-18T03:29:17.115Z,18.95
2022-08-18T03:30:16.585Z,18.92
2022-08-18T03:31:17.031Z,18.92
2022-08-18T03:32:16.574Z,18.89
2022-08-18T03:33:16.987Z,18.89
2022-08-18T03:34:16.402Z,18.86
2022-08-18T03:35:16.867Z,18.94
2022-08-18T03:36:16.288Z,18.96
2022-08-18T03:37:16.732Z,19.01
2022-08-18T03:38:17.180Z,19.03
2022-08-18T03:39:16.632Z,19.09
2022-08-18T03:40:17.158Z,19.05
2022-08-18T03:41:16.744Z,19.05
2022-08-18T03:42:17.233Z,19.02
2022-08-18T03:43:23.872Z,19.02
2022-08-18T03:44:17.134Z,19.03
2022-08-18T03:45:17.949Z,19.02
2022-08-18T03:46:16.660Z,18.96
2022-08-18T03:47:17.085Z,18.98
2022-08-18T03:48:16.508Z,19.01
2022-08-18T03:49:16.932Z,18.99
2022-08-18T03:50:16.375Z,18.96
2022-08-18T03:51:16.828Z,19.03
2022-08-18T03:52:16.340Z,19.07
2022-08-18T03:53:16.766Z,19.09
2022-08-18T03:54:17.197Z,19.10
2022-08-18T03:55:16.640Z,19.10
2022-08-18T03:56:17.597Z,19.13
2022-08-18T03:57:16.312Z,19.13
2022-08-18T03:58:16.771Z,19.03
2022-08-18T03:59:17.242Z,19.03
2022-08-18T04:00:16.684Z,19.06
2022-08-18T04:01:25.782Z,19.06
2022-08-18T04:02:16.776Z,19.05
2022-08-18T04:03:17.192Z,19.05
2022-08-18T04:04:16.649Z,18.98
2022-08-18T04:05:17.073Z,18.98
2022-08-18T04:06:16.507Z,18.99
2022-08-18T04:07:16.817Z,19.02
2022-08-18T04:08:17.288Z,19.06
2022-08-18T04:09:16.744Z,19.10
2022-08-18T04:10:19.382Z,19.10
2022-08-18T04:11:17.248Z,19.12
2022-08-18T04:12:17.458Z,19.09
2022-08-18T04:13:17.163Z,19.09
2022-08-18T04:14:16.620Z,19.07
2022-08-18T04:15:17.079Z,19.06
2022-08-18T04:16:16.516Z,19.06
2022-08-18T04:17:16.950Z,19.06
2022-08-18T04:18:16.390Z,19.09
2022-08-18T04:19:23.184Z,19.09
2022-08-18T04:20:16.461Z,19.09
2022-08-18T04:21:16.907Z,19.10
2022-08-18T04:22:17.099Z,19.10
2022-08-18T04:23:16.838Z,19.12
2022-08-18T04:24:16.299Z,19.10
2022-08-18T04:25:16.785Z,19.09
2022-08-18T04:26:19.235Z,19.09
2022-08-18T04:27:17.005Z,19.12
2022-08-18T04:28:16.458Z,19.16
2022-08-18T04:29:16.917Z,19.16
2022-08-18T04:30:16.339Z,19.23
2022-08-18T04:31:16.761Z,19.25
2022-08-18T04:32:17.288Z,19.22
2022-08-18T04:33:16.727Z,19.22
2022-08-18T04:34:17.190Z,19.22
2022-08-18T04:35:16.617Z,19.23
2022-08-18T04:36:17.673Z,19.25
2022-08-18T04:37:16.344Z,19.23
2022-08-18T04:38:16.855Z,19.20
2022-08-18T04:39:16.326Z,19.19
2022-08-18T04:40:19.229Z,19.17
2022-08-18T04:41:16.525Z,19.12
2022-08-18T04:42:16.868Z,19.13
2022-08-18T04:43:16.315Z,19.16
2022-08-18T04:44:16.769Z,19.13
2022-08-18T04:45:17.191Z,19.10
2022-08-18T04:46:16.651Z,19.09
2022-08-18T04:47:16.398Z,19.12
2022-08-18T04:48:16.816Z,19.16
2022-08-18T04:49:16.424Z,19.19
2022-08-18T04:50:16.854Z,19.23
2022-08-18T04:52:21.822Z,19.29
2022-08-18T04:52:22.140Z,19.25
2022-08-18T04:53:17.152Z,19.30
2022-08-18T04:54:16.590Z,19.33
2022-08-18T04:55:17.069Z,19.33
2022-08-18T04:56:16.533Z,19.36
2022-08-18T04:57:16.623Z,19.29
2022-08-18T04:58:17.088Z,19.27
2022-08-18T04:59:16.552Z,19.22
2022-08-18T05:00:16.996Z,19.19
2022-08-18T05:01:16.505Z,19.20
2022-08-18T05:02:16.964Z,19.20
2022-08-18T05:03:16.377Z,19.22
2022-08-18T05:04:16.810Z,19.22
2022-08-18T05:05:17.282Z,19.19
2022-08-18T05:06:16.718Z,19.13
2022-08-18T05:07:17.193Z,19.16
2022-08-18T05:08:16.646Z,19.19
2022-08-18T05:09:22.710Z,19.23
2022-08-18T05:10:16.745Z,19.25
2022-08-18T05:11:17.232Z,19.17
2022-08-18T05:12:16.854Z,19.17
2022-08-18T05:13:16.463Z,19.20
2022-08-18T05:14:16.884Z,19.22
2022-08-18T05:15:16.316Z,19.23
2022-08-18T05:16:19.580Z,19.20
2022-08-18T05:17:16.404Z,19.20
2022-08-18T05:18:16.856Z,19.20
2022-08-18T05:19:19.215Z,19.19
2022-08-18T05:20:16.871Z,19.13
2022-08-18T05:21:16.346Z,19.10
2022-08-18T05:22:16.772Z,19.13
2022-08-18T05:23:16.888Z,19.19
2022-08-18T05:24:16.386Z,19.22
2022-08-18T05:25:16.893Z,19.23
2022-08-18T05:26:16.358Z,19.22
2022-08-18T05:27:16.828Z,19.22
2022-08-18T05:28:17.343Z,19.23
2022-08-18T05:29:18.200Z,19.20
2022-08-18T05:30:17.256Z,19.25
2022-08-18T05:31:16.677Z,19.27
2022-08-18T05:32:30.722Z,19.29
2022-08-18T05:33:16.612Z,19.26
2022-08-18T05:34:17.043Z,19.27
2022-08-18T05:35:16.509Z,19.33
2022-08-18T05:36:16.967Z,19.43
2022-08-18T05:37:16.439Z,19.50
2022-08-18T05:38:16.923Z,19.54
2022-08-18T05:39:16.410Z,19.53
2022-08-18T05:40:17.003Z,19.56
2022-08-18T05:41:16.634Z,19.54
2022-08-18T05:42:16.756Z,19.54
2022-08-18T05:43:17.183Z,19.58
2022-08-18T05:44:16.628Z,19.67
2022-08-18T05:45:17.056Z,19.72
2022-08-18T05:46:16.526Z,19.74
2022-08-18T05:47:16.424Z,19.76
2022-08-18T05:48:16.864Z,19.75
2022-08-18T05:49:16.311Z,19.76
2022-08-18T05:50:16.780Z,19.79
2022-08-18T05:51:17.248Z,19.82
2022-08-18T05:52:16.529Z,19.82
2022-08-18T05:53:16.999Z,19.89
2022-08-18T05:54:17.213Z,19.88
2022-08-18T05:55:16.689Z,19.91
2022-08-18T05:56:17.147Z,19.96
2022-08-18T05:57:16.625Z,20.06
2022-08-18T05:58:17.203Z,20.03
2022-08-18T05:59:16.651Z,20.13
2022-08-18T06:00:17.068Z,20.20
2022-08-18T06:01:16.509Z,20.26
2022-08-18T06:02:16.444Z,20.31
2022-08-18T06:03:16.927Z,20.36
2022-08-18T06:04:16.587Z,20.43
2022-08-18T06:05:17.045Z,20.44
2022-08-18T06:06:16.527Z,20.52
2022-08-18T06:07:17.000Z,20.57
2022-08-18T06:08:16.465Z,20.61
2022-08-18T06:09:16.896Z,20.68
2022-08-18T06:10:16.337Z,20.74
2022-08-18T06:11:17.182Z,20.78
2022-08-18T06:12:16.327Z,20.83
2022-08-18T06:13:16.758Z,20.91
2022-08-18T06:14:17.178Z,20.95
2022-08-18T06:15:16.599Z,20.99
2022-08-18T06:16:16.623Z,20.96
2022-08-18T06:17:17.060Z,20.96
2022-08-18T06:18:16.530Z,21.02
2022-08-18T06:19:17.001Z,21.19
2022-08-18T06:20:16.496Z,21.33
2022-08-18T06:21:16.996Z,21.45
2022-08-18T06:22:16.306Z,21.68
2022-08-18T06:23:16.937Z,21.83
2022-08-18T06:24:16.409Z,22.06
2022-08-18T06:25:17.868Z,22.26
2022-08-18T06:26:16.360Z,22.07
2022-08-18T06:27:16.779Z,22.02
2022-08-18T06:28:17.221Z,22.00
2022-08-18T06:29:16.673Z,21.91
2022-08-18T06:30:17.092Z,21.93
2022-08-18T06:31:16.533Z,21.92
2022-08-18T06:32:16.373Z,21.93
2022-08-18T06:33:16.816Z,21.96
2022-08-18T06:34:17.277Z,21.88
2022-08-18T06:35:16.737Z,21.86
2022-08-18T06:36:18.232Z,21.96
2022-08-18T06:37:16.934Z,21.96
2022-08-18T06:38:16.408Z,21.83
2022-08-18T06:39:16.852Z,21.76
2022-08-18T06:40:17.382Z,21.71
2022-08-18T06:41:37.777Z,21.68
2022-08-18T06:42:16.439Z,21.79
2022-08-18T06:43:16.893Z,21.92
2022-08-18T06:44:16.309Z,22.02
2022-08-18T06:45:16.774Z,22.02
2022-08-18T06:46:17.221Z,21.98
2022-08-18T06:47:16.722Z,21.92
2022-08-18T06:48:17.209Z,22.16
2022-08-18T06:49:16.682Z,22.23
2022-08-18T06:50:17.149Z,22.51
2022-08-18T06:51:16.604Z,22.55
2022-08-18T06:52:17.014Z,22.55
2022-08-18T06:53:19.016Z,22.31
2022-08-18T06:54:16.709Z,22.65
2022-08-18T06:55:17.126Z,23.31
2022-08-18T06:56:26.074Z,23.57
2022-08-18T06:57:16.422Z,23.88
2022-08-18T06:58:16.846Z,24.13
2022-08-18T06:59:17.260Z,24.27
2022-08-18T07:00:16.708Z,24.69
2022-08-18T07:01:17.233Z,24.90
2022-08-18T07:02:16.769Z,25.23
2022-08-18T07:03:17.227Z,25.17
2022-08-18T07:04:16.698Z,25.05
2022-08-18T07:05:17.157Z,25.35
2022-08-18T07:06:16.614Z,25.75
2022-08-18T07:07:17.089Z,26.03
2022-08-18T07:08:18.344Z,26.03
2022-08-18T07:09:17.180Z,26.01
2022-08-18T07:10:16.613Z,25.80
2022-08-18T07:11:17.060Z,26.08
2022-08-18T07:12:16.991Z,26.07
2022-08-18T07:13:16.424Z,26.23
2022-08-18T07:14:17.229Z,26.33
2022-08-18T07:15:16.776Z,26.69
2022-08-18T07:16:20.614Z,26.83
2022-08-18T07:17:16.891Z,26.92
2022-08-18T07:18:16.350Z,26.93
2022-08-18T07:19:16.809Z,27.15
2022-08-18T07:20:17.253Z,27.38
2022-08-18T07:21:16.717Z,27.42
2022-08-18T07:22:17.151Z,27.31
2022-08-18T07:23:16.624Z,27.54
2022-08-18T07:24:24.635Z,27.54
2022-08-18T07:25:17.055Z,27.86
2022-08-18T07:26:16.470Z,27.57
2022-08-18T07:27:16.898Z,27.58
2022-08-18T07:28:16.323Z,27.54
2022-08-18T07:29:16.748Z,26.96
2022-08-18T07:30:17.201Z,26.95
2022-08-18T07:31:17.527Z,27.27
2022-08-18T07:32:21.218Z,27.17
2022-08-18T07:33:17.205Z,27.02
2022-08-18T07:34:16.668Z,26.95
2022-08-18T07:35:17.123Z,27.13
2022-08-18T07:36:16.558Z,27.30
2022-08-18T07:37:16.993Z,27.23
2022-08-18T07:38:38.968Z,27.27
2022-08-18T07:39:16.840Z,27.51
2022-08-18T07:40:17.364Z,27.62
2022-08-18T07:41:16.951Z,28.04
2022-08-18T07:42:16.613Z,28.17
2022-08-18T07:43:17.099Z,28.69
2022-08-18T07:44:16.602Z,28.94
2022-08-18T07:45:17.072Z,28.94
2022-08-18T07:46:17.158Z,28.86
2022-08-18T07:47:16.666Z,28.54
2022-08-18T07:48:36.835Z,28.34
2022-08-18T07:49:20.423Z,28.28
2022-08-18T07:50:23.309Z,28.35
2022-08-18T07:51:17.320Z,28.41
2022-08-18T07:52:36.799Z,28.62
2022-08-18T07:53:16.561Z,28.86
2022-08-18T07:54:45.231Z,28.79
2022-08-18T07:55:16.969Z,28.87
2022-08-18T07:56:16.400Z,28.58
2022-08-18T07:57:19.996Z,28.20
2022-08-18T07:58:17.005Z,28.34
2022-08-18T07:59:16.487Z,28.75
2022-08-18T08:00:20.678Z,28.85
2022-08-18T08:01:16.815Z,28.89
2022-08-18T08:02:17.096Z,28.73
2022-08-18T08:03:16.671Z,28.96
2022-08-18T08:04:25.160Z,29.01
2022-08-18T08:05:16.985Z,28.82
2022-08-18T08:06:16.425Z,28.97
2022-08-18T08:07:25.002Z,28.96
2022-08-18T08:08:17.200Z,28.76
2022-08-18T08:09:16.656Z,28.28
2022-08-18T08:10:17.108Z,28.30
2022-08-18T08:11:16.538Z,28.44
2022-08-18T08:12:16.930Z,28.86
2022-08-18T08:13:22.309Z,29.00
2022-08-18T08:14:16.841Z,29.31
2022-08-18T08:15:17.336Z,28.85
2022-08-18T08:16:16.798Z,28.86
2022-08-18T08:17:17.335Z,28.85
2022-08-18T08:18:16.809Z,28.89
2022-08-18T08:19:17.225Z,28.90
2022-08-18T08:20:16.681Z,28.59
2022-08-18T08:21:17.099Z,28.65
2022-08-18T08:22:16.674Z,27.99
2022-08-18T08:23:17.122Z,27.99
2022-08-18T08:24:16.592Z,28.49
2022-08-18T08:25:42.479Z,29.06
2022-08-18T08:26:16.467Z,29.28
2022-08-18T08:27:16.918Z,29.24
2022-08-18T08:28:16.397Z,29.48
2022-08-18T08:29:16.856Z,29.51
2022-08-18T08:30:16.331Z,29.00
2022-08-18T08:31:35.827Z,28.93
2022-08-18T08:32:17.088Z,29.01
2022-08-18T08:33:16.557Z,29.06
2022-08-18T08:34:16.982Z,29.01
2022-08-18T08:35:47.422Z,29.07
2022-08-18T08:36:16.920Z,29.06
2022-08-18T08:37:16.363Z,28.81
2022-08-18T08:38:36.977Z,28.78
2022-08-18T08:39:16.313Z,28.47
2022-08-18T08:40:16.819Z,28.10
2022-08-18T08:41:16.437Z,28.09
2022-08-18T08:42:29.009Z,28.20
2022-08-18T08:43:16.455Z,28.20
2022-08-18T08:44:16.925Z,28.44
2022-08-18T08:45:16.407Z,28.64
2022-08-18T08:46:16.889Z,29.16
2022-08-18T08:47:16.970Z,29.20
2022-08-18T08:48:16.837Z,29.04
2022-08-18T08:49:17.254Z,28.76
2022-08-18T08:50:16.730Z,28.68
2022-08-18T08:51:17.149Z,29.17
2022-08-18T08:52:18.867Z,29.18
2022-08-18T08:53:16.581Z,28.93
2022-08-18T08:54:17.000Z,28.64
2022-08-18T08:55:16.457Z,27.87
2022-08-18T08:56:16.897Z,28.39
2022-08-18T08:57:16.364Z,28.38
2022-08-18T08:58:16.827Z,28.11
2022-08-18T08:59:17.274Z,27.82
2022-08-18T09:00:16.772Z,27.86
2022-08-18T09:01:17.286Z,27.96
2022-08-18T09:02:37.794Z,28.02
2022-08-18T09:03:17.128Z,27.85
2022-08-18T09:04:16.791Z,28.32
2022-08-18T09:05:17.248Z,27.72
2022-08-18T09:06:16.671Z,27.92
2022-08-18T09:07:17.088Z,27.82
2022-08-18T09:08:16.562Z,27.92
2022-08-18T09:09:16.992Z,28.17
2022-08-18T09:10:16.414Z,28.71
2022-08-18T09:11:16.870Z,28.21
2022-08-18T09:12:16.560Z,28.47
2022-08-18T09:13:17.016Z,28.47
2022-08-18T09:14:16.506Z,28.55
2022-08-18T09:15:16.997Z,28.85
2022-08-18T09:16:16.484Z,28.51
2022-08-18T09:17:16.978Z,29.07
2022-08-18T09:18:16.437Z,29.20
2022-08-18T09:19:16.902Z,29.42
2022-08-18T09:20:16.391Z,29.82
2022-08-18T09:21:17.023Z,30.17
2022-08-18T09:22:17.588Z,30.50
2022-08-18T09:23:17.038Z,30.21
2022-08-18T09:24:16.501Z,30.70
2022-08-18T09:25:16.923Z,31.58
2022-08-18T09:26:16.396Z,31.28
2022-08-18T09:27:16.881Z,31.04
2022-08-18T09:28:16.330Z,30.58
2022-08-18T09:29:16.808Z,30.58
2022-08-18T09:30:17.268Z,30.93
2022-08-18T09:31:19.469Z,30.73
2022-08-18T09:32:16.479Z,29.86
2022-08-18T09:33:18.612Z,29.66
2022-08-18T09:34:16.892Z,29.66
2022-08-18T09:35:16.341Z,29.72
2022-08-18T09:36:20.116Z,29.90
2022-08-18T09:37:16.903Z,29.35
2022-08-18T09:38:17.481Z,29.62
2022-08-18T09:39:18.363Z,29.73
2022-08-18T09:40:16.630Z,29.66
2022-08-18T09:41:17.269Z,29.52
2022-08-18T09:42:16.560Z,29.24
2022-08-18T09:43:20.142Z,28.90
2022-08-18T09:44:18.086Z,29.34
2022-08-18T09:45:16.659Z,28.94
2022-08-18T09:46:17.190Z,28.66
2022-08-18T09:47:17.070Z,29.58
2022-08-18T09:48:20.830Z,29.85
2022-08-18T09:49:16.781Z,29.82
2022-08-18T09:50:24.923Z,29.49
2022-08-18T09:51:17.424Z,28.64
2022-08-18T09:52:16.677Z,28.49
2022-08-18T09:53:17.088Z,28.14
2022-08-18T09:54:21.217Z,28.03
2022-08-18T09:55:16.409Z,28.58
2022-08-18T09:56:19.577Z,28.31
2022-08-18T09:57:19.346Z,28.99
2022-08-18T09:58:17.217Z,29.49
2022-08-18T09:59:17.008Z,29.44
2022-08-18T10:00:16.488Z,29.52
2022-08-18T10:01:17.026Z,29.63
2022-08-18T10:02:20.381Z,29.77
2022-08-18T10:03:16.951Z,30.65
2022-08-18T10:04:19.950Z,30.70
2022-08-18T10:05:16.582Z,30.38
2022-08-18T10:06:17.026Z,29.77
2022-08-18T10:07:16.905Z,29.26
2022-08-18T10:08:21.172Z,29.42
2022-08-18T10:09:18.196Z,30.11
2022-08-18T10:10:58.896Z,30.27
2022-08-18T10:11:17.138Z,30.52
2022-08-18T10:12:16.916Z,30.07
2022-08-18T10:13:17.223Z,30.69
2022-08-18T10:14:18.201Z,30.78
2022-08-18T10:15:27.114Z,30.65
2022-08-18T10:16:16.673Z,30.94
2022-08-18T10:17:21.955Z,30.72
2022-08-18T10:18:17.014Z,31.01
2022-08-18T10:19:16.370Z,30.83
2022-08-18T10:20:25.678Z,30.55
2022-08-18T10:21:16.468Z,30.51
2022-08-18T10:22:16.742Z,30.97
2022-08-18T10:23:16.772Z,30.98
2022-08-18T10:24:35.354Z,31.13
2022-08-18T10:25:23.176Z,31.93
2022-08-18T10:26:17.099Z,31.77
2022-08-18T10:27:16.815Z,31.82
2022-08-18T10:28:17.256Z,31.45
2022-08-18T10:29:16.721Z,31.38
2022-08-18T10:30:16.489Z,31.40
2022-08-18T10:31:16.955Z,32.18
2022-08-18T10:32:16.613Z,31.31
2022-08-18T10:33:18.046Z,31.46
2022-08-18T10:35:16.443Z,30.63
2022-08-18T10:36:16.877Z,31.01
2022-08-18T10:37:17.006Z,30.68
2022-08-18T10:38:16.933Z,30.82
2022-08-18T10:39:16.584Z,31.32
2022-08-18T10:40:16.647Z,29.90
2022-08-18T10:41:16.901Z,29.27
2022-08-18T10:42:16.594Z,29.85
2022-08-18T10:43:55.077Z,29.88
2022-08-18T10:44:28.582Z,29.56
2022-08-18T10:45:22.045Z,29.44
2022-08-18T10:46:24.823Z,29.46
2022-08-18T10:47:17.179Z,29.24
2022-08-18T10:48:17.507Z,29.63
2022-08-18T10:49:17.352Z,29.37
2022-08-18T10:50:16.647Z,29.52
2022-08-18T10:51:21.452Z,29.71
2022-08-18T10:52:16.726Z,29.59
2022-08-18T10:53:39.945Z,29.52
2022-08-18T10:54:18.475Z,28.48
2022-08-18T10:55:16.399Z,28.28
2022-08-18T10:56:16.866Z,28.59
2022-08-18T10:57:16.741Z,29.01
2022-08-18T10:58:17.193Z,29.11
2022-08-18T10:59:17.130Z,29.44
2022-08-18T11:00:16.933Z,29.62
2022-08-18T11:01:16.422Z,30.24
2022-08-18T11:02:16.347Z,30.96
2022-08-18T11:03:42.942Z,31.10
2022-08-18T11:04:33.760Z,30.10
2022-08-18T11:05:16.880Z,30.23
2022-08-18T11:06:18.381Z,30.31
2022-08-18T11:07:18.278Z,30.11
2022-08-18T11:08:16.846Z,30.32
2022-08-18T11:09:17.312Z,30.06
2022-08-18T11:10:28.986Z,29.82
2022-08-18T11:11:32.739Z,29.92
2022-08-18T11:12:16.416Z,30.08
2022-08-18T11:13:16.967Z,30.07
2022-08-18T11:14:16.680Z,29.80
2022-08-18T11:15:21.355Z,29.90
2022-08-18T11:16:16.487Z,29.76
2022-08-18T11:17:16.923Z,29.85
2022-08-18T11:18:16.345Z,30.17
2022-08-18T11:19:17.068Z,30.23
2022-08-18T11:20:17.999Z,30.36
2022-08-18T11:21:16.696Z,30.27
2022-08-18T11:22:16.737Z,29.62
2022-08-18T11:23:16.836Z,28.73
2022-08-18T11:24:16.648Z,28.92
2022-08-18T11:25:17.128Z,28.75
2022-08-18T11:26:18.256Z,29.40
2022-08-18T11:27:16.956Z,29.63
2022-08-18T11:28:18.355Z,29.61
2022-08-18T11:29:17.087Z,29.45
2022-08-18T11:30:17.221Z,29.61
2022-08-18T11:31:17.235Z,29.72
2022-08-18T11:32:17.890Z,29.72
2022-08-18T11:33:22.640Z,29.79
2022-08-18T11:34:18.446Z,29.11
2022-08-18T11:35:16.647Z,29.21
2022-08-18T11:36:16.968Z,29.30
2022-08-18T11:37:16.385Z,29.10
2022-08-18T11:39:16.534Z,29.45
2022-08-18T11:40:22.390Z,29.37
2022-08-18T11:41:17.068Z,29.72
2022-08-18T11:42:22.002Z,29.66
2022-08-18T11:43:16.948Z,29.86
2022-08-18T11:44:17.288Z,29.65
2022-08-18T11:45:16.543Z,29.75
2022-08-18T11:46:17.256Z,29.83
2022-08-18T11:47:16.856Z,29.33
2022-08-18T11:48:20.735Z,28.85
2022-08-18T11:49:17.162Z,28.69
2022-08-18T11:50:16.974Z,28.85
2022-08-18T11:51:16.402Z,28.87
2022-08-18T11:52:19.746Z,28.81
2022-08-18T11:53:16.316Z,28.96
2022-08-18T11:54:16.376Z,29.23
2022-08-18T11:55:24.289Z,29.18
2022-08-18T11:56:16.496Z,29.24
2022-08-18T11:57:17.216Z,29.16
2022-08-18T11:58:16.410Z,29.10
2022-08-18T11:59:16.883Z,28.86
2022-08-18T12:00:22.684Z,28.75
2022-08-18T12:01:16.917Z,28.73
2022-08-18T12:02:16.623Z,28.51
2022-08-18T12:03:17.050Z,28.06
2022-08-18T12:04:16.489Z,28.10
2022-08-18T12:05:17.858Z,28.37
2022-08-18T12:06:19.018Z,28.10
2022-08-18T12:07:20.459Z,28.09
2022-08-18T12:08:33.503Z,28.09
2022-08-18T12:09:30.563Z,28.13
2022-08-18T12:10:19.166Z,28.10
2022-08-18T12:11:26.956Z,27.97
2022-08-18T12:12:16.606Z,28.23
2022-08-18T12:13:16.899Z,28.42
2022-08-18T12:14:29.643Z,28.44
2022-08-18T12:15:17.702Z,28.52
2022-08-18T12:16:16.368Z,28.39
2022-08-18T12:17:16.793Z,28.45
2022-08-18T12:18:19.152Z,28.42
2022-08-18T12:19:16.289Z,28.39
2022-08-18T12:20:16.769Z,28.44
2022-08-18T12:21:16.626Z,28.64
2022-08-18T12:22:17.408Z,28.58
2022-08-18T12:23:17.123Z,28.61
2022-08-18T12:24:16.981Z,28.92
2022-08-18T12:25:24.621Z,28.92
2022-08-18T12:26:18.872Z,28.83
2022-08-18T12:27:20.973Z,28.51
2022-08-18T12:28:16.856Z,28.62
2022-08-18T12:29:17.036Z,28.66
2022-08-18T12:30:16.898Z,28.76
2022-08-18T12:31:17.196Z,28.87
2022-08-18T12:32:17.712Z,28.96
2022-08-18T12:33:16.702Z,29.14
2022-08-18T12:34:16.679Z,29.09
2022-08-18T12:35:16.515Z,29.09
2022-08-18T12:36:17.001Z,29.13
2022-08-18T12:37:54.379Z,29.06
2022-08-18T12:38:16.754Z,29.00
2022-08-18T12:39:16.529Z,28.86
2022-08-18T12:40:17.061Z,28.64
2022-08-18T12:41:21.357Z,28.51
2022-08-18T12:42:16.508Z,28.44
2022-08-18T12:43:16.988Z,28.38
2022-08-18T12:44:16.575Z,28.21
2022-08-18T12:45:16.455Z,28.31
2022-08-18T12:46:16.878Z,28.41
2022-08-18T12:47:16.309Z,28.47
2022-08-18T12:48:16.740Z,28.58
2022-08-18T12:49:17.177Z,28.42
2022-08-18T12:50:16.612Z,27.80
2022-08-18T12:51:17.035Z,27.89
2022-08-18T12:52:17.259Z,28.03
2022-08-18T12:53:17.252Z,27.89
2022-08-18T12:54:16.895Z,27.92